Meteo Giornale » Osservazioni meteo Italia » Pisa-S Giusto

ore: 06:45 - Osservazioni Meteo Pisa-S Giusto
Lat. 43° 41' N Lon. 10° 23' E Alt. 2 metri s.l.m.

poco_nuvoloso

16 °C

Poco Nuvoloso

Temp. 24 Ore

16 °C

31 °C

Nord

5.5 Km/h

Dew point 15 °C

Umidità 93 %

Visibilità  10 Km

Il sole sorge alle ore 06:43

Il sole tramonta alle ore 19:53

Data e Ora Cielo e Fenomeni T °C DP °C Um. % Pres. hPa Vis. km Vento km/h
Oggi h: 06:45 poco_nuvoloso Poco Nuvoloso 16 15 93 1018 10 N 5.5
Oggi h: 06:15 sereno Sereno 16 15 93 1018 10 SE 7.4
Oggi h: 05:45 sereno Sereno 16 15 93 1018 10 SE 9.3
Oggi h: 05:15 sereno Sereno 17 15 88 1018 10 S/SE 7.4
Oggi h: 04:45 sereno Sereno 17 15 88 1018 10 S 7.4
Oggi h: 04:15 sereno Sereno 18 16 88 1018 10 N 3.7
Oggi h: 03:45 sereno Sereno 18 16 88 1018 10 N 5.5
Oggi h: 03:15 sereno Sereno 18 16 88 1018 10 E/SE 7.4
Oggi h: 02:45 sereno Sereno 19 17 88 1018 10 E/SE 9.3
Oggi h: 02:15 sereno Sereno 19 17 88 1018 10 E 7.4
Oggi h: 01:45 sereno Sereno 19 17 88 1018 10 E 7.4
Oggi h: 01:15 sereno Sereno 19 17 88 1018 10 N 5.5
Oggi h: 00:45 sereno Sereno 20 18 88 1018 10 N 3.7
Oggi h: 00:15 sereno Sereno 19 17 88 1018 10 E/SE 9.3
Ieri h: 23:45 sereno Sereno 20 17 82 1018 10 SE 7.4
Ieri h: 23:15 sereno Sereno 21 18 82 1018 10 E 7.4
Ieri h: 22:45 sereno Sereno 20 17 82 1018 10 N 5.5
Ieri h: 22:15 sereno Sereno 21 18 82 1018 10 N 3.7
Ieri h: 21:45 sereno Sereno 23 18 73 1018 10 O/SO 7.4
Ieri h: 21:15 sereno Sereno 23 18 73 1018 10 N 5.5
Ieri h: 20:45 poco_nuvoloso Poco Nuvoloso 24 18 69 1017 10 N 5.5
Ieri h: 20:15 poco_nuvoloso Poco Nuvoloso 25 19 69 1017 10 N 5.5
Ieri h: 19:45 poco_nuvoloso Poco Nuvoloso 26 19 65 1017 10 O/SO 9.3
Ieri h: 19:15 poco_nuvoloso Poco Nuvoloso 27 19 61 1017 10 SO 13
Ieri h: 18:45 poco_nuvoloso Poco Nuvoloso 28 18 54 1017 10 O/SO 11.1
Ieri h: 18:15 poco_nuvoloso Poco Nuvoloso 29 17 48 1017 10 O/SO 13
Ieri h: 17:45 sereno Sereno 29 16 45 1017 10 O/SO 16.7
Ieri h: 17:15 poco_nuvoloso Poco Nuvoloso 30 15 40 1017 10 O/SO 18.5
Ieri h: 16:45 poco_nuvoloso Poco Nuvoloso 30 16 42 1017 10 O/SO 14.8
Ieri h: 16:15 poco_nuvoloso Poco Nuvoloso 30 19 51 1017 10 O 16.7
Ieri h: 15:45 poco_nuvoloso Poco Nuvoloso 30 20 55 1017 10 O/SO 20.3
Ieri h: 15:15 poco_nuvoloso Poco Nuvoloso 30 21 58 1018 10 O 20.3
Ieri h: 14:45 nuvoloso Nuvoloso 31 22 58 1018 10 O 24
Ieri h: 14:15 nuvoloso Nuvoloso 31 11 29 1018 10 O 20.3
Ieri h: 13:45 nuvoloso Nuvoloso 30 20 55 1017 10 O/NO 16.7
Ieri h: 13:15 nuvoloso Nuvoloso 31 19 48 1017 10 O/SO 9.3
Ieri h: 12:45 nuvoloso Nuvoloso 31 20 52 1018 10 O/SO 11.1
Ieri h: 12:15 nuvoloso Nuvoloso 30 20 55 1018 10 N 5.5
Ieri h: 11:45 nuvoloso Nuvoloso 29 20 58 1018 10 N 5.5
Ieri h: 11:15 nuvoloso Nuvoloso 29 21 62 1018 10 E/SE 9.3
Ieri h: 10:45 nuvoloso Nuvoloso 28 21 65 1018 10 E/SE 13
Ieri h: 10:15 poco_nuvoloso Poco Nuvoloso 27 21 69 1017 10 E/SE 16.7
Ieri h: 09:45 nuvoloso Nuvoloso 26 21 73 1017 10 E/SE 16.7
Ieri h: 09:15 poco_nuvoloso Poco Nuvoloso 25 21 78 1017 10 E/SE 9.3
Ieri h: 08:45 poco_nuvoloso Poco Nuvoloso 24 21 83 1017 10 N 5.5
Ieri h: 08:15 poco_nuvoloso Poco Nuvoloso 22 20 88 1017 10 N 5.5
Ieri h: 07:45 nuvoloso Nuvoloso 21 20 94 1017 10 N 5.5